CPX956 Details

Departure: Travis Air Force Base (KSUU)
Arrival: Sacramento International Airport (KSMF)
Notes: EMPTY | NON-REVENUE REPOSITIONING LEG | VFR DEPARTURE RCMD IF WX PERMITS


Current Weather Information
KSUU 250958Z AUTO 23020G26KT 10SM OVC009 13/10 A2980 RMK AO2 PK WND 24026/44 SLP098 T01250100 $
KSMF 250953Z 18014G22KT 10SM SCT008 12/11 A2978 RMK AO2 SLP084 T01220106